sensor_id;sensor_type;location;lat;lon;timestamp;pressure;altitude;pressure_sealevel;temperature;humidity
53340;BME280;46212;50.258;19.062;2023-02-12T00:01:18;99735.38;;;4.03;100.00
53340;BME280;46212;50.258;19.062;2023-02-12T00:03:43;99750.56;;;3.86;100.00
53340;BME280;46212;50.258;19.062;2023-02-12T00:06:09;99751.03;;;4.09;100.00
53340;BME280;46212;50.258;19.062;2023-02-12T00:08:36;99756.13;;;4.07;100.00
53340;BME280;46212;50.258;19.062;2023-02-12T00:11:16;99745.19;;;4.07;100.00
53340;BME280;46212;50.258;19.062;2023-02-12T00:13:42;99732.28;;;4.01;100.00
53340;BME280;46212;50.258;19.062;2023-02-12T00:16:10;99742.03;;;4.02;100.00
53340;BME280;46212;50.258;19.062;2023-02-12T00:18:36;99734.19;;;3.93;100.00
53340;BME280;46212;50.258;19.062;2023-02-12T00:21:02;99756.03;;;3.93;100.00
53340;BME280;46212;50.258;19.062;2023-02-12T00:23:28;99755.44;;;4.28;100.00
53340;BME280;46212;50.258;19.062;2023-02-12T00:25:54;99754.22;;;4.15;100.00
53340;BME280;46212;50.258;19.062;2023-02-12T00:28:19;99758.56;;;4.30;100.00
53340;BME280;46212;50.258;19.062;2023-02-12T00:30:45;99761.59;;;4.11;100.00
53340;BME280;46212;50.258;19.062;2023-02-12T00:33:10;99772.50;;;4.07;100.00
53340;BME280;46212;50.258;19.062;2023-02-12T00:35:36;99765.88;;;4.05;100.00
53340;BME280;46212;50.258;19.062;2023-02-12T00:38:01;99754.22;;;4.25;100.00
53340;BME280;46212;50.258;19.062;2023-02-12T00:40:27;99757.72;;;4.22;100.00
53340;BME280;46212;50.258;19.062;2023-02-12T00:42:52;99759.25;;;4.09;100.00
53340;BME280;46212;50.258;19.062;2023-02-12T00:45:17;99760.41;;;4.05;100.00
53340;BME280;46212;50.258;19.062;2023-02-12T00:47:43;99761.22;;;4.09;100.00
53340;BME280;46212;50.258;19.062;2023-02-12T00:50:08;99774.91;;;4.19;100.00
53340;BME280;46212;50.258;19.062;2023-02-12T00:52:34;99768.66;;;4.22;100.00
53340;BME280;46212;50.258;19.062;2023-02-12T00:54:59;99776.06;;;4.15;100.00
53340;BME280;46212;50.258;19.062;2023-02-12T00:57:25;99760.78;;;4.07;100.00
53340;BME280;46212;50.258;19.062;2023-02-12T00:59:50;99766.19;;;3.89;100.00
53340;BME280;46212;50.258;19.062;2023-02-12T01:02:16;99777.16;;;3.96;100.00
53340;BME280;46212;50.258;19.062;2023-02-12T01:04:42;99780.63;;;3.90;100.00
53340;BME280;46212;50.258;19.062;2023-02-12T01:07:08;99788.91;;;4.07;100.00
53340;BME280;46212;50.258;19.062;2023-02-12T01:09:33;99790.47;;;4.05;100.00
53340;BME280;46212;50.258;19.062;2023-02-12T01:11:59;99785.34;;;3.93;100.00
53340;BME280;46212;50.258;19.062;2023-02-12T01:14:24;99777.16;;;4.00;100.00
53340;BME280;46212;50.258;19.062;2023-02-12T01:16:50;99782.63;;;4.00;100.00
53340;BME280;46212;50.258;19.062;2023-02-12T01:19:15;99785.09;;;4.26;100.00
53340;BME280;46212;50.258;19.062;2023-02-12T01:21:41;99783.56;;;4.36;100.00
53340;BME280;46212;50.258;19.062;2023-02-12T01:24:06;99783.84;;;4.09;100.00
53340;BME280;46212;50.258;19.062;2023-02-12T01:26:32;99789.28;;;3.99;100.00
53340;BME280;46212;50.258;19.062;2023-02-12T01:29:00;99791.97;;;3.92;100.00
53340;BME280;46212;50.258;19.062;2023-02-12T01:31:29;99799.03;;;4.00;100.00
53340;BME280;46212;50.258;19.062;2023-02-12T01:33:57;99803.06;;;4.23;100.00
53340;BME280;46212;50.258;19.062;2023-02-12T01:36:24;99795.94;;;4.05;100.00
53340;BME280;46212;50.258;19.062;2023-02-12T01:38:49;99809.59;;;4.01;100.00
53340;BME280;46212;50.258;19.062;2023-02-12T01:41:18;99816.97;;;3.97;100.00
53340;BME280;46212;50.258;19.062;2023-02-12T01:43:44;99804.97;;;4.16;100.00
53340;BME280;46212;50.258;19.062;2023-02-12T01:46:13;99808.13;;;4.25;100.00
53340;BME280;46212;50.258;19.062;2023-02-12T01:48:42;99816.31;;;4.25;100.00
53340;BME280;46212;50.258;19.062;2023-02-12T01:51:11;99817.41;;;3.99;100.00
53340;BME280;46212;50.258;19.062;2023-02-12T01:53:49;99819.06;;;4.25;100.00
53340;BME280;46212;50.258;19.062;2023-02-12T01:56:16;99811.34;;;4.48;100.00
53340;BME280;46212;50.258;19.062;2023-02-12T01:58:43;99819.97;;;4.54;100.00
53340;BME280;46212;50.258;19.062;2023-02-12T02:01:12;99842.13;;;4.24;100.00
53340;BME280;46212;50.258;19.062;2023-02-12T02:03:41;99818.66;;;4.23;100.00
53340;BME280;46212;50.258;19.062;2023-02-12T02:06:11;99827.31;;;4.32;100.00
53340;BME280;46212;50.258;19.062;2023-02-12T02:08:38;99826.94;;;4.34;100.00
53340;BME280;46212;50.258;19.062;2023-02-12T02:11:04;99836.28;;;4.29;100.00
53340;BME280;46212;50.258;19.062;2023-02-12T02:13:50;99846.13;;;4.41;100.00
53340;BME280;46212;50.258;19.062;2023-02-12T02:16:35;99841.16;;;4.74;100.00
53340;BME280;46212;50.258;19.062;2023-02-12T02:22:13;99849.25;;;4.46;100.00
53340;BME280;46212;50.258;19.062;2023-02-12T02:30:54;99846.16;;;4.58;100.00
53340;BME280;46212;50.258;19.062;2023-02-12T02:36:24;99847.63;;;4.31;100.00
53340;BME280;46212;50.258;19.062;2023-02-12T02:41:48;99875.13;;;4.63;100.00
53340;BME280;46212;50.258;19.062;2023-02-12T02:44:34;99865.81;;;4.85;99.94
53340;BME280;46212;50.258;19.062;2023-02-12T02:47:03;99885.75;;;4.86;98.93
53340;BME280;46212;50.258;19.062;2023-02-12T02:49:43;99881.09;;;4.93;98.48
53340;BME280;46212;50.258;19.062;2023-02-12T02:52:55;99875.56;;;4.82;98.39
53340;BME280;46212;50.258;19.062;2023-02-12T02:55:24;99871.16;;;4.50;99.63
53340;BME280;46212;50.258;19.062;2023-02-12T02:58:05;99872.81;;;4.72;99.95
53340;BME280;46212;50.258;19.062;2023-02-12T03:03:39;99885.34;;;4.80;98.61
53340;BME280;46212;50.258;19.062;2023-02-12T03:06:25;99894.31;;;4.77;98.19
53340;BME280;46212;50.258;19.062;2023-02-12T03:09:01;99905.66;;;4.75;98.04
53340;BME280;46212;50.258;19.062;2023-02-12T03:11:31;99906.84;;;4.78;98.14
53340;BME280;46212;50.258;19.062;2023-02-12T03:17:20;99910.34;;;4.75;98.20
53340;BME280;46212;50.258;19.062;2023-02-12T03:19:59;99929.09;;;4.76;98.26
53340;BME280;46212;50.258;19.062;2023-02-12T03:22:30;99931.06;;;4.72;98.40
53340;BME280;46212;50.258;19.062;2023-02-12T03:25:12;99933.41;;;4.77;97.79
53340;BME280;46212;50.258;19.062;2023-02-12T03:27:47;99951.81;;;4.84;97.42
53340;BME280;46212;50.258;19.062;2023-02-12T03:30:14;99943.59;;;4.80;97.61
53340;BME280;46212;50.258;19.062;2023-02-12T03:35:23;99946.34;;;4.84;97.14
53340;BME280;46212;50.258;19.062;2023-02-12T03:40:20;99958.84;;;4.78;97.25
53340;BME280;46212;50.258;19.062;2023-02-12T03:43:23;99969.75;;;4.74;97.38
53340;BME280;46212;50.258;19.062;2023-02-12T03:46:01;99971.31;;;4.68;97.55
53340;BME280;46212;50.258;19.062;2023-02-12T03:48:42;99969.75;;;4.74;97.61
53340;BME280;46212;50.258;19.062;2023-02-12T03:51:24;99982.28;;;4.72;97.90
53340;BME280;46212;50.258;19.062;2023-02-12T03:53:54;99970.50;;;4.64;97.77
53340;BME280;46212;50.258;19.062;2023-02-12T03:56:43;99995.91;;;4.65;97.86
53340;BME280;46212;50.258;19.062;2023-02-12T03:59:09;99987.25;;;4.56;98.47
53340;BME280;46212;50.258;19.062;2023-02-12T04:01:35;99991.25;;;4.72;97.83
53340;BME280;46212;50.258;19.062;2023-02-12T04:04:03;100006.47;;;4.70;97.39
53340;BME280;46212;50.258;19.062;2023-02-12T04:06:29;99993.16;;;4.65;96.88
53340;BME280;46212;50.258;19.062;2023-02-12T04:08:57;99999.00;;;4.56;96.88
53340;BME280;46212;50.258;19.062;2023-02-12T04:11:34;100019.34;;;4.62;97.33
53340;BME280;46212;50.258;19.062;2023-02-12T04:16:47;100029.53;;;4.65;97.26
53340;BME280;46212;50.258;19.062;2023-02-12T04:19:23;100026.78;;;4.65;97.18
53340;BME280;46212;50.258;19.062;2023-02-12T04:22:19;100026.81;;;4.69;96.96
53340;BME280;46212;50.258;19.062;2023-02-12T04:25:00;100036.56;;;4.63;96.76
53340;BME280;46212;50.258;19.062;2023-02-12T04:27:54;100012.59;;;4.46;97.44
53340;BME280;46212;50.258;19.062;2023-02-12T04:30:27;100019.69;;;4.57;97.06
53340;BME280;46212;50.258;19.062;2023-02-12T04:33:05;100020.47;;;4.58;96.88
53340;BME280;46212;50.258;19.062;2023-02-12T04:41:07;100045.72;;;4.34;99.29
53340;BME280;46212;50.258;19.062;2023-02-12T04:43:35;100044.00;;;4.66;97.29
53340;BME280;46212;50.258;19.062;2023-02-12T04:46:02;100048.06;;;4.35;96.74
53340;BME280;46212;50.258;19.062;2023-02-12T04:48:28;100045.00;;;4.47;97.71
53340;BME280;46212;50.258;19.062;2023-02-12T04:50:53;100052.53;;;4.57;96.54
53340;BME280;46212;50.258;19.062;2023-02-12T04:53:19;100063.13;;;4.62;96.49
53340;BME280;46212;50.258;19.062;2023-02-12T04:55:44;100040.78;;;4.53;96.43
53340;BME280;46212;50.258;19.062;2023-02-12T04:58:11;100066.19;;;4.57;96.55
53340;BME280;46212;50.258;19.062;2023-02-12T05:00:37;100067.38;;;4.60;96.58
53340;BME280;46212;50.258;19.062;2023-02-12T05:03:02;100080.63;;;4.54;96.05
53340;BME280;46212;50.258;19.062;2023-02-12T05:05:28;100074.34;;;4.47;96.68
53340;BME280;46212;50.258;19.062;2023-02-12T05:07:53;100081.06;;;4.56;96.28
53340;BME280;46212;50.258;19.062;2023-02-12T05:10:19;100078.78;;;4.65;95.72
53340;BME280;46212;50.258;19.062;2023-02-12T05:12:44;100072.09;;;4.59;95.66
53340;BME280;46212;50.258;19.062;2023-02-12T05:15:10;100076.06;;;4.69;95.59
53340;BME280;46212;50.258;19.062;2023-02-12T05:17:35;100067.75;;;4.55;95.99
53340;BME280;46212;50.258;19.062;2023-02-12T05:20:01;100085.81;;;4.66;95.68
53340;BME280;46212;50.258;19.062;2023-02-12T05:22:27;100094.31;;;4.54;95.97
53340;BME280;46212;50.258;19.062;2023-02-12T05:24:52;100092.00;;;4.56;96.23
53340;BME280;46212;50.258;19.062;2023-02-12T05:27:17;100104.19;;;4.69;95.50
53340;BME280;46212;50.258;19.062;2023-02-12T05:29:43;100102.66;;;4.68;95.07
53340;BME280;46212;50.258;19.062;2023-02-12T05:32:08;100094.28;;;4.51;94.94
53340;BME280;46212;50.258;19.062;2023-02-12T05:34:34;100112.66;;;4.50;95.48
53340;BME280;46212;50.258;19.062;2023-02-12T05:36:59;100112.59;;;4.43;95.90
53340;BME280;46212;50.258;19.062;2023-02-12T05:39:25;100114.59;;;4.46;96.10
53340;BME280;46212;50.258;19.062;2023-02-12T05:41:50;100123.59;;;4.47;96.38
53340;BME280;46212;50.258;19.062;2023-02-12T05:44:16;100124.34;;;4.47;95.72
53340;BME280;46212;50.258;19.062;2023-02-12T05:46:41;100133.72;;;4.46;95.50
53340;BME280;46212;50.258;19.062;2023-02-12T05:49:08;100127.75;;;4.34;95.82
53340;BME280;46212;50.258;19.062;2023-02-12T05:51:34;100126.50;;;4.24;96.25
53340;BME280;46212;50.258;19.062;2023-02-12T05:54:01;100151.63;;;4.37;95.84
53340;BME280;46212;50.258;19.062;2023-02-12T05:56:33;100151.66;;;4.40;95.47
53340;BME280;46212;50.258;19.062;2023-02-12T05:59:02;100151.50;;;4.26;94.72
53340;BME280;46212;50.258;19.062;2023-02-12T06:01:39;100166.34;;;4.25;94.69
53340;BME280;46212;50.258;19.062;2023-02-12T06:04:07;100168.19;;;4.14;95.54
53340;BME280;46212;50.258;19.062;2023-02-12T06:06:33;100168.00;;;3.96;95.85
53340;BME280;46212;50.258;19.062;2023-02-12T06:08:59;100173.59;;;4.10;95.84
53340;BME280;46212;50.258;19.062;2023-02-12T06:11:25;100171.41;;;4.23;95.48
53340;BME280;46212;50.258;19.062;2023-02-12T06:13:51;100195.69;;;4.32;94.58
53340;BME280;46212;50.258;19.062;2023-02-12T06:16:21;100203.59;;;4.37;94.35
53340;BME280;46212;50.258;19.062;2023-02-12T06:18:48;100207.50;;;4.39;93.73
53340;BME280;46212;50.258;19.062;2023-02-12T06:21:15;100189.00;;;4.25;92.90
53340;BME280;46212;50.258;19.062;2023-02-12T06:23:40;100212.06;;;4.24;92.01
53340;BME280;46212;50.258;19.062;2023-02-12T06:26:06;100192.16;;;4.27;91.16
53340;BME280;46212;50.258;19.062;2023-02-12T06:28:32;100211.31;;;4.27;90.88
53340;BME280;46212;50.258;19.062;2023-02-12T06:30:58;100218.81;;;4.34;90.10
53340;BME280;46212;50.258;19.062;2023-02-12T06:33:23;100209.16;;;4.10;90.33
53340;BME280;46212;50.258;19.062;2023-02-12T06:35:49;100223.91;;;4.02;90.47
53340;BME280;46212;50.258;19.062;2023-02-12T06:38:14;100226.25;;;4.04;90.42
53340;BME280;46212;50.258;19.062;2023-02-12T06:40:40;100229.53;;;4.16;88.94
53340;BME280;46212;50.258;19.062;2023-02-12T06:43:06;100241.63;;;4.15;88.23
53340;BME280;46212;50.258;19.062;2023-02-12T06:45:33;100235.69;;;4.10;87.96
53340;BME280;46212;50.258;19.062;2023-02-12T06:47:59;100240.81;;;4.11;87.50
53340;BME280;46212;50.258;19.062;2023-02-12T06:50:24;100255.97;;;4.05;86.34
53340;BME280;46212;50.258;19.062;2023-02-12T06:52:50;100253.94;;;3.99;85.66
53340;BME280;46212;50.258;19.062;2023-02-12T06:55:15;100263.97;;;3.91;86.18
53340;BME280;46212;50.258;19.062;2023-02-12T06:57:41;100249.47;;;3.87;85.44
53340;BME280;46212;50.258;19.062;2023-02-12T07:00:07;100258.09;;;3.89;84.81
53340;BME280;46212;50.258;19.062;2023-02-12T07:02:33;100269.72;;;3.83;84.87
53340;BME280;46212;50.258;19.062;2023-02-12T07:04:58;100276.38;;;3.85;85.01
53340;BME280;46212;50.258;19.062;2023-02-12T07:07:24;100260.53;;;3.68;84.71
53340;BME280;46212;50.258;19.062;2023-02-12T07:09:49;100279.94;;;3.59;84.93
53340;BME280;46212;50.258;19.062;2023-02-12T07:12:15;100265.97;;;3.38;85.62
53340;BME280;46212;50.258;19.062;2023-02-12T07:14:40;100257.34;;;3.10;85.29
53340;BME280;46212;50.258;19.062;2023-02-12T07:17:05;100256.50;;;3.32;85.39
53340;BME280;46212;50.258;19.062;2023-02-12T07:19:32;100278.72;;;3.31;85.44
53340;BME280;46212;50.258;19.062;2023-02-12T07:21:58;100268.47;;;3.24;85.51
53340;BME280;46212;50.258;19.062;2023-02-12T07:24:23;100271.69;;;3.30;83.97
53340;BME280;46212;50.258;19.062;2023-02-12T07:26:48;100284.34;;;3.41;83.74
53340;BME280;46212;50.258;19.062;2023-02-12T07:29:14;100285.81;;;3.35;83.93
53340;BME280;46212;50.258;19.062;2023-02-12T07:31:40;100276.81;;;3.35;83.25
53340;BME280;46212;50.258;19.062;2023-02-12T07:34:05;100280.34;;;3.35;83.17
53340;BME280;46212;50.258;19.062;2023-02-12T07:36:32;100286.06;;;3.53;81.69
53340;BME280;46212;50.258;19.062;2023-02-12T07:38:58;100290.50;;;3.61;81.36
53340;BME280;46212;50.258;19.062;2023-02-12T07:41:29;100284.06;;;3.50;80.64
53340;BME280;46212;50.258;19.062;2023-02-12T07:43:59;100289.53;;;3.50;80.22
53340;BME280;46212;50.258;19.062;2023-02-12T07:46:30;100313.09;;;3.58;79.85
53340;BME280;46212;50.258;19.062;2023-02-12T07:48:57;100316.00;;;3.46;80.06
53340;BME280;46212;50.258;19.062;2023-02-12T07:51:24;100316.44;;;3.48;79.38
53340;BME280;46212;50.258;19.062;2023-02-12T07:53:50;100334.09;;;3.54;79.65
53340;BME280;46212;50.258;19.062;2023-02-12T07:56:18;100323.75;;;3.66;79.85
53340;BME280;46212;50.258;19.062;2023-02-12T07:58:45;100333.78;;;3.85;78.27
53340;BME280;46212;50.258;19.062;2023-02-12T08:01:11;100340.03;;;3.86;78.11
53340;BME280;46212;50.258;19.062;2023-02-12T08:03:37;100324.16;;;3.68;78.01
53340;BME280;46212;50.258;19.062;2023-02-12T08:06:17;100339.97;;;3.82;77.81
53340;BME280;46212;50.258;19.062;2023-02-12T08:08:43;100327.28;;;3.67;77.59
53340;BME280;46212;50.258;19.062;2023-02-12T08:11:10;100340.72;;;3.79;77.73
53340;BME280;46212;50.258;19.062;2023-02-12T08:13:36;100360.88;;;3.97;77.07
53340;BME280;46212;50.258;19.062;2023-02-12T08:16:08;100364.63;;;4.12;75.71
53340;BME280;46212;50.258;19.062;2023-02-12T08:18:34;100364.13;;;4.06;74.37
53340;BME280;46212;50.258;19.062;2023-02-12T08:21:01;100366.88;;;4.06;74.44
53340;BME280;46212;50.258;19.062;2023-02-12T08:23:27;100369.25;;;4.08;74.20
53340;BME280;46212;50.258;19.062;2023-02-12T08:25:52;100360.78;;;4.16;73.65
53340;BME280;46212;50.258;19.062;2023-02-12T08:28:17;100375.59;;;4.45;72.93
53340;BME280;46212;50.258;19.062;2023-02-12T08:30:43;100372.22;;;4.55;71.92
53340;BME280;46212;50.258;19.062;2023-02-12T08:33:08;100367.94;;;4.58;72.04
53340;BME280;46212;50.258;19.062;2023-02-12T08:35:34;100378.44;;;4.52;70.97
53340;BME280;46212;50.258;19.062;2023-02-12T08:37:59;100375.16;;;4.40;70.76
53340;BME280;46212;50.258;19.062;2023-02-12T08:40:24;100362.13;;;4.29;71.45
53340;BME280;46212;50.258;19.062;2023-02-12T08:42:51;100366.75;;;4.25;71.78
53340;BME280;46212;50.258;19.062;2023-02-12T08:45:17;100367.53;;;4.26;72.11
53340;BME280;46212;50.258;19.062;2023-02-12T08:47:42;100366.69;;;4.18;72.17
53340;BME280;46212;50.258;19.062;2023-02-12T08:50:08;100387.06;;;4.24;71.57
53340;BME280;46212;50.258;19.062;2023-02-12T08:52:34;100386.50;;;4.12;71.80
53340;BME280;46212;50.258;19.062;2023-02-12T08:55:00;100388.00;;;4.09;72.24
53340;BME280;46212;50.258;19.062;2023-02-12T08:57:25;100385.13;;;3.99;72.94
53340;BME280;46212;50.258;19.062;2023-02-12T08:59:51;100387.59;;;4.07;72.33
53340;BME280;46212;50.258;19.062;2023-02-12T09:02:16;100396.16;;;4.32;72.05
53340;BME280;46212;50.258;19.062;2023-02-12T09:04:41;100400.81;;;4.28;71.81
53340;BME280;46212;50.258;19.062;2023-02-12T09:07:07;100405.75;;;4.49;70.46
53340;BME280;46212;50.258;19.062;2023-02-12T09:09:32;100398.63;;;4.41;70.16
53340;BME280;46212;50.258;19.062;2023-02-12T09:11:58;100394.53;;;4.27;70.55
53340;BME280;46212;50.258;19.062;2023-02-12T09:14:23;100402.75;;;4.27;71.43
53340;BME280;46212;50.258;19.062;2023-02-12T09:16:49;100405.25;;;4.13;70.56
53340;BME280;46212;50.258;19.062;2023-02-12T09:19:17;100400.69;;;3.95;70.52
53340;BME280;46212;50.258;19.062;2023-02-12T09:21:43;100402.97;;;3.89;71.48
53340;BME280;46212;50.258;19.062;2023-02-12T09:24:09;100411.88;;;3.86;71.10
53340;BME280;46212;50.258;19.062;2023-02-12T09:26:34;100408.16;;;3.98;71.17
53340;BME280;46212;50.258;19.062;2023-02-12T09:29:02;100414.81;;;4.00;70.73
53340;BME280;46212;50.258;19.062;2023-02-12T09:31:29;100410.16;;;4.01;69.94
53340;BME280;46212;50.258;19.062;2023-02-12T09:34:04;100413.28;;;4.03;69.79
53340;BME280;46212;50.258;19.062;2023-02-12T09:36:31;100432.19;;;4.11;69.50
53340;BME280;46212;50.258;19.062;2023-02-12T09:38:57;100430.13;;;4.05;69.06
53340;BME280;46212;50.258;19.062;2023-02-12T09:44:31;100434.66;;;4.20;68.28
53340;BME280;46212;50.258;19.062;2023-02-12T09:47:11;100426.50;;;4.23;69.21
53340;BME280;46212;50.258;19.062;2023-02-12T09:52:22;100438.06;;;4.13;68.53
53340;BME280;46212;50.258;19.062;2023-02-12T09:54:48;100424.66;;;4.05;69.88
53340;BME280;46212;50.258;19.062;2023-02-12T09:57:24;100434.13;;;4.37;69.03
53340;BME280;46212;50.258;19.062;2023-02-12T09:59:57;100436.75;;;4.30;68.83
53340;BME280;46212;50.258;19.062;2023-02-12T10:02:24;100436.53;;;4.16;69.68
53340;BME280;46212;50.258;19.062;2023-02-12T10:04:50;100438.34;;;4.05;70.84
53340;BME280;46212;50.258;19.062;2023-02-12T10:07:30;100444.50;;;3.75;71.31
53340;BME280;46212;50.258;19.062;2023-02-12T10:12:52;100430.81;;;3.98;69.17
53340;BME280;46212;50.258;19.062;2023-02-12T10:18:22;100439.44;;;4.00;68.36
53340;BME280;46212;50.258;19.062;2023-02-12T10:23:45;100444.75;;;4.16;69.49
53340;BME280;46212;50.258;19.062;2023-02-12T10:26:41;100428.78;;;4.18;68.84
53340;BME280;46212;50.258;19.062;2023-02-12T10:29:13;100437.22;;;4.36;67.96
53340;BME280;46212;50.258;19.062;2023-02-12T10:31:43;100445.75;;;4.31;67.00
53340;BME280;46212;50.258;19.062;2023-02-12T10:34:25;100455.56;;;4.35;67.39
53340;BME280;46212;50.258;19.062;2023-02-12T10:36:54;100453.22;;;4.34;67.80
53340;BME280;46212;50.258;19.062;2023-02-12T10:39:25;100438.06;;;4.40;68.43
53340;BME280;46212;50.258;19.062;2023-02-12T10:41:57;100447.47;;;4.42;69.08
53340;BME280;46212;50.258;19.062;2023-02-12T10:44:26;100449.06;;;4.17;69.55
53340;BME280;46212;50.258;19.062;2023-02-12T10:46:52;100459.22;;;4.43;68.86
53340;BME280;46212;50.258;19.062;2023-02-12T10:49:18;100443.13;;;4.67;67.16
53340;BME280;46212;50.258;19.062;2023-02-12T10:51:47;100462.72;;;5.03;66.68
53340;BME280;46212;50.258;19.062;2023-02-12T10:54:42;100462.06;;;5.13;67.07
53340;BME280;46212;50.258;19.062;2023-02-12T10:57:25;100456.06;;;5.00;68.63
53340;BME280;46212;50.258;19.062;2023-02-12T10:59:54;100434.16;;;5.00;67.12
53340;BME280;46212;50.258;19.062;2023-02-12T11:02:29;100449.00;;;5.36;63.99
53340;BME280;46212;50.258;19.062;2023-02-12T11:04:58;100454.25;;;5.48;62.90
53340;BME280;46212;50.258;19.062;2023-02-12T11:07:25;100457.34;;;5.47;62.10
53340;BME280;46212;50.258;19.062;2023-02-12T11:09:53;100458.69;;;5.63;62.78
53340;BME280;46212;50.258;19.062;2023-02-12T11:12:34;100455.78;;;5.86;62.16
53340;BME280;46212;50.258;19.062;2023-02-12T11:15:24;100460.94;;;5.95;62.40
53340;BME280;46212;50.258;19.062;2023-02-12T11:18:00;100451.78;;;5.83;62.95
53340;BME280;46212;50.258;19.062;2023-02-12T11:20:29;100450.09;;;6.09;62.98
53340;BME280;46212;50.258;19.062;2023-02-12T11:23:05;100447.50;;;6.30;62.99
53340;BME280;46212;50.258;19.062;2023-02-12T11:25:35;100444.84;;;6.48;61.71
53340;BME280;46212;50.258;19.062;2023-02-12T11:28:16;100448.53;;;6.76;61.07
53340;BME280;46212;50.258;19.062;2023-02-12T11:33:37;100437.63;;;6.94;59.86
53340;BME280;46212;50.258;19.062;2023-02-12T11:36:18;100438.78;;;6.93;58.97
53340;BME280;46212;50.258;19.062;2023-02-12T11:38:51;100428.63;;;6.97;58.31
53340;BME280;46212;50.258;19.062;2023-02-12T11:41:36;100437.53;;;6.76;57.80
53340;BME280;46212;50.258;19.062;2023-02-12T11:46:52;100432.38;;;6.61;59.50
53340;BME280;46212;50.258;19.062;2023-02-12T11:49:28;100442.41;;;7.15;59.15
53340;BME280;46212;50.258;19.062;2023-02-12T11:51:56;100427.06;;;7.14;57.30
53340;BME280;46212;50.258;19.062;2023-02-12T11:54:24;100435.00;;;7.43;57.94
53340;BME280;46212;50.258;19.062;2023-02-12T11:56:51;100431.50;;;7.68;56.54
53340;BME280;46212;50.258;19.062;2023-02-12T11:59:42;100444.09;;;7.72;55.92
53340;BME280;46212;50.258;19.062;2023-02-12T12:02:27;100446.41;;;7.38;56.44
53340;BME280;46212;50.258;19.062;2023-02-12T12:05:07;100436.56;;;7.37;56.80
53340;BME280;46212;50.258;19.062;2023-02-12T12:07:35;100451.47;;;7.29;57.39
53340;BME280;46212;50.258;19.062;2023-02-12T12:10:22;100438.50;;;7.26;58.08
53340;BME280;46212;50.258;19.062;2023-02-12T12:12:55;100451.31;;;6.87;58.62
53340;BME280;46212;50.258;19.062;2023-02-12T12:15:24;100443.28;;;6.50;60.94
53340;BME280;46212;50.258;19.062;2023-02-12T12:21:18;100442.78;;;7.17;60.53
53340;BME280;46212;50.258;19.062;2023-02-12T12:23:59;100446.00;;;7.47;58.75
53340;BME280;46212;50.258;19.062;2023-02-12T12:26:29;100435.31;;;7.14;59.56
53340;BME280;46212;50.258;19.062;2023-02-12T12:29:03;100431.41;;;7.11;59.46
53340;BME280;46212;50.258;19.062;2023-02-12T12:31:43;100448.34;;;7.31;63.77
53340;BME280;46212;50.258;19.062;2023-02-12T12:34:21;100426.31;;;7.10;62.07
53340;BME280;46212;50.258;19.062;2023-02-12T12:53:54;100452.81;;;5.65;64.84
53340;BME280;46212;50.258;19.062;2023-02-12T12:56:51;100458.25;;;5.58;65.42
53340;BME280;46212;50.258;19.062;2023-02-12T13:04:50;100465.59;;;5.50;67.74
53340;BME280;46212;50.258;19.062;2023-02-12T13:26:52;100449.00;;;5.76;67.92
53340;BME280;46212;50.258;19.062;2023-02-12T13:29:19;100466.28;;;5.40;68.95
53340;BME280;46212;50.258;19.062;2023-02-12T13:34:29;100463.66;;;5.91;68.00
53340;BME280;46212;50.258;19.062;2023-02-12T13:36:59;100442.09;;;5.93;67.55
53340;BME280;46212;50.258;19.062;2023-02-12T13:39:39;100455.97;;;6.11;67.69
53340;BME280;46212;50.258;19.062;2023-02-12T13:47:29;100467.53;;;5.86;67.81
53340;BME280;46212;50.258;19.062;2023-02-12T13:50:26;100461.75;;;5.58;68.79
53340;BME280;46212;50.258;19.062;2023-02-12T13:53:22;100472.50;;;5.77;68.67
53340;BME280;46212;50.258;19.062;2023-02-12T13:56:27;100464.53;;;6.02;67.30
53340;BME280;46212;50.258;19.062;2023-02-12T13:58:57;100473.44;;;5.88;68.00
53340;BME280;46212;50.258;19.062;2023-02-12T14:12:00;100457.78;;;6.44;66.83
53340;BME280;46212;50.258;19.062;2023-02-12T14:14:33;100468.56;;;6.80;65.71
53340;BME280;46212;50.258;19.062;2023-02-12T14:30:36;100472.91;;;9.25;56.52
53340;BME280;46212;50.258;19.062;2023-02-12T14:35:36;100462.56;;;9.43;56.97
53340;BME280;46212;50.258;19.062;2023-02-12T14:40:40;100473.19;;;8.30;59.04
53340;BME280;46212;50.258;19.062;2023-02-12T14:45:51;100463.66;;;7.32;62.22
53340;BME280;46212;50.258;19.062;2023-02-12T14:48:49;100465.53;;;7.07;63.51
53340;BME280;46212;50.258;19.062;2023-02-12T14:51:32;100475.66;;;6.92;64.23
53340;BME280;46212;50.258;19.062;2023-02-12T14:54:01;100472.03;;;6.70;65.10
53340;BME280;46212;50.258;19.062;2023-02-12T14:56:32;100465.66;;;6.52;65.52
53340;BME280;46212;50.258;19.062;2023-02-12T14:59:03;100467.97;;;6.50;66.07
53340;BME280;46212;50.258;19.062;2023-02-12T15:01:34;100468.59;;;6.87;64.41
53340;BME280;46212;50.258;19.062;2023-02-12T15:04:24;100471.56;;;7.51;62.95
53340;BME280;46212;50.258;19.062;2023-02-12T15:07:06;100475.91;;;7.91;60.92
53340;BME280;46212;50.258;19.062;2023-02-12T15:09:54;100480.16;;;7.42;61.79
53340;BME280;46212;50.258;19.062;2023-02-12T15:12:32;100479.66;;;7.05;63.26
53340;BME280;46212;50.258;19.062;2023-02-12T15:15:19;100482.19;;;6.63;64.29
53340;BME280;46212;50.258;19.062;2023-02-12T15:18:02;100478.84;;;6.32;64.92
53340;BME280;46212;50.258;19.062;2023-02-12T15:20:43;100461.44;;;6.07;65.66
53340;BME280;46212;50.258;19.062;2023-02-12T15:26:02;100483.56;;;6.32;65.85
53340;BME280;46212;50.258;19.062;2023-02-12T15:28:33;100480.81;;;6.32;65.99
53340;BME280;46212;50.258;19.062;2023-02-12T15:31:02;100479.38;;;6.49;65.55